createdAt,value
2022-09-18T00:02:16.319Z,9.45
2022-09-18T00:07:22.964Z,9.47
2022-09-18T00:12:26.987Z,9.41
2022-09-18T00:17:29.837Z,9.38
2022-09-18T00:22:31.745Z,9.35
2022-09-18T00:27:33.474Z,9.37
2022-09-18T00:32:37.694Z,9.30
2022-09-18T00:37:41.098Z,9.21
2022-09-18T00:42:45.436Z,9.21
2022-09-18T00:47:49.263Z,9.15
2022-09-18T00:52:52.737Z,9.11
2022-09-18T00:58:01.626Z,9.06
2022-09-18T01:03:04.394Z,9.07
2022-09-18T01:08:41.786Z,9.16
2022-09-18T01:13:59.339Z,9.21
2022-09-18T01:19:41.534Z,9.26
2022-09-18T01:25:21.704Z,9.22
2022-09-18T01:30:27.016Z,9.21
2022-09-18T01:35:49.861Z,9.13
2022-09-18T01:40:54.810Z,9.08
2022-09-18T01:46:04.392Z,9.08
2022-09-18T01:51:20.858Z,9.11
2022-09-18T01:56:33.745Z,9.13
2022-09-18T02:01:40.498Z,9.11
2022-09-18T02:06:51.790Z,9.03
2022-09-18T02:11:56.649Z,8.97
2022-09-18T02:17:06.432Z,8.91
2022-09-18T02:22:16.629Z,8.84
2022-09-18T02:27:21.888Z,8.79
2022-09-18T02:32:30.001Z,8.70
2022-09-18T02:37:55.085Z,8.65
2022-09-18T02:43:38.613Z,8.54
2022-09-18T02:49:05.421Z,8.52
2022-09-18T02:54:13.310Z,8.52
2022-09-18T02:59:23.394Z,8.64
2022-09-18T03:04:32.572Z,8.76
2022-09-18T03:09:50.087Z,8.86
2022-09-18T03:14:51.932Z,8.89
2022-09-18T03:19:54.122Z,8.86
2022-09-18T03:24:58.487Z,8.78
2022-09-18T03:30:04.606Z,8.73
2022-09-18T03:35:22.528Z,8.74
2022-09-18T03:40:29.375Z,8.78
2022-09-18T03:45:40.580Z,8.81
2022-09-18T03:50:48.634Z,8.78
2022-09-18T03:55:52.932Z,8.71
2022-09-18T04:01:15.514Z,8.64
2022-09-18T04:06:38.556Z,8.53
2022-09-18T04:11:53.102Z,8.50
2022-09-18T04:16:56.537Z,8.45
2022-09-18T04:21:58.482Z,8.55
2022-09-18T04:27:00.318Z,8.69
2022-09-18T04:32:03.330Z,8.88
2022-09-18T04:37:10.166Z,8.92
2022-09-18T04:42:15.533Z,8.85
2022-09-18T04:47:19.664Z,8.82
2022-09-18T04:52:21.667Z,8.82
2022-09-18T04:57:23.600Z,8.86
2022-09-18T05:02:25.519Z,8.90
2022-09-18T05:07:33.847Z,8.91
2022-09-18T05:12:37.876Z,9.28
2022-09-18T05:17:43.175Z,9.10
2022-09-18T05:22:50.302Z,9.07
2022-09-18T05:27:57.515Z,9.12
2022-09-18T05:33:09.524Z,9.11
2022-09-18T05:38:13.954Z,9.22
2022-09-18T05:43:23.473Z,9.27
2022-09-18T05:48:27.463Z,9.23
2022-09-18T05:53:30.258Z,9.20
2022-09-18T05:58:55.713Z,9.25
2022-09-18T06:03:59.690Z,9.37
2022-09-18T06:09:10.762Z,9.35
2022-09-18T06:14:17.705Z,9.22
2022-09-18T06:19:21.387Z,9.16
2022-09-18T06:24:28.987Z,9.18
2022-09-18T06:29:40.809Z,9.33
2022-09-18T06:35:03.921Z,9.41
2022-09-18T06:40:09.159Z,9.29
2022-09-18T06:45:33.905Z,9.21
2022-09-18T06:50:38.110Z,9.20
2022-09-18T06:55:42.381Z,9.36
2022-09-18T07:00:49.071Z,9.49
2022-09-18T07:06:12.814Z,9.42
2022-09-18T07:11:22.001Z,9.35
2022-09-18T07:16:24.076Z,9.42
2022-09-18T07:21:28.385Z,9.73
2022-09-18T07:26:32.828Z,9.99
2022-09-18T07:31:36.032Z,10.26
2022-09-18T07:36:45.928Z,10.44
2022-09-18T07:41:50.067Z,10.44
2022-09-18T07:46:55.415Z,10.71
2022-09-18T07:52:04.398Z,10.96
2022-09-18T07:57:12.796Z,11.25
2022-09-18T08:02:33.281Z,11.68
2022-09-18T08:07:35.665Z,12.02
2022-09-18T08:12:54.155Z,12.09
2022-09-18T08:18:00.599Z,11.71
2022-09-18T08:23:31.121Z,11.64
2022-09-18T08:28:35.420Z,11.78
2022-09-18T08:33:45.008Z,11.96
2022-09-18T08:38:48.789Z,12.08
2022-09-18T08:44:14.141Z,12.57
2022-09-18T08:49:28.141Z,12.69
2022-09-18T08:54:58.623Z,12.12
2022-09-18T09:00:36.702Z,11.52
2022-09-18T09:06:02.118Z,11.12
2022-09-18T09:11:13.471Z,11.43
2022-09-18T09:16:18.656Z,11.78
2022-09-18T09:21:24.810Z,12.22
2022-09-18T09:26:32.265Z,12.41
2022-09-18T09:31:56.226Z,12.06
2022-09-18T09:37:03.816Z,12.21
2022-09-18T09:42:26.438Z,12.51
2022-09-18T09:47:31.217Z,12.82
2022-09-18T09:52:33.797Z,13.09
2022-09-18T09:58:01.095Z,13.43
2022-09-18T10:03:36.948Z,13.70
2022-09-18T10:08:46.753Z,14.22
2022-09-18T10:13:59.703Z,14.25
2022-09-18T10:19:03.872Z,13.68
2022-09-18T10:24:22.430Z,13.93
2022-09-18T10:29:33.775Z,13.86
2022-09-18T10:34:49.736Z,14.05
2022-09-18T10:40:00.037Z,14.36
2022-09-18T10:45:23.956Z,14.67
2022-09-18T10:50:35.039Z,14.90
2022-09-18T10:55:55.642Z,15.18
2022-09-18T11:01:05.776Z,14.94
2022-09-18T11:06:18.959Z,14.06
2022-09-18T11:11:32.352Z,13.33
2022-09-18T11:16:48.676Z,13.39
2022-09-18T11:21:59.499Z,14.40
2022-09-18T11:27:30.339Z,15.18
2022-09-18T11:32:33.791Z,14.04
2022-09-18T11:37:45.395Z,12.87
2022-09-18T11:42:48.948Z,12.82
2022-09-18T11:47:58.642Z,14.10
2022-09-18T11:53:06.753Z,15.01
2022-09-18T11:58:17.168Z,15.78
2022-09-18T12:03:30.632Z,15.63
2022-09-18T12:09:12.457Z,14.75
2022-09-18T12:14:26.061Z,14.61
2022-09-18T12:19:55.455Z,15.84
2022-09-18T12:25:03.358Z,17.26
2022-09-18T12:30:55.155Z,17.54
2022-09-18T12:36:10.496Z,17.68
2022-09-18T12:41:57.645Z,17.38
2022-09-18T12:47:06.296Z,16.40
2022-09-18T12:52:27.920Z,15.65
2022-09-18T12:57:29.591Z,16.90
2022-09-18T13:02:39.400Z,17.45
2022-09-18T13:08:22.369Z,17.80
2022-09-18T13:14:08.623Z,19.27
2022-09-18T13:19:20.557Z,18.89
2022-09-18T13:24:29.998Z,17.12
2022-09-18T13:29:52.839Z,16.54
2022-09-18T13:34:59.101Z,19.89
2022-09-18T13:40:24.995Z,21.63
2022-09-18T13:45:29.953Z,21.04
2022-09-18T13:50:40.331Z,19.08
2022-09-18T13:55:53.450Z,17.87
2022-09-18T14:00:55.315Z,19.43
2022-09-18T14:05:57.832Z,21.32
2022-09-18T14:11:17.571Z,19.51
2022-09-18T14:16:41.054Z,20.82
2022-09-18T14:21:46.563Z,21.81
2022-09-18T14:26:59.684Z,19.98
2022-09-18T14:32:02.452Z,17.62
2022-09-18T14:37:28.567Z,16.11
2022-09-18T14:42:34.230Z,15.58
2022-09-18T14:47:36.111Z,15.09
2022-09-18T14:52:45.346Z,14.72
2022-09-18T14:58:00.172Z,14.24
2022-09-18T15:03:13.886Z,13.89
2022-09-18T15:08:26.475Z,13.77
2022-09-18T15:13:30.087Z,13.79
2022-09-18T15:18:42.250Z,13.80
2022-09-18T15:23:44.759Z,13.68
2022-09-18T15:28:49.261Z,13.97
2022-09-18T15:34:08.099Z,14.64
2022-09-18T15:39:29.132Z,14.45
2022-09-18T15:44:39.679Z,14.23
2022-09-18T15:49:41.352Z,14.19
2022-09-18T15:55:04.289Z,14.07
2022-09-18T16:00:20.325Z,14.22
2022-09-18T16:05:28.292Z,14.51
2022-09-18T16:10:37.158Z,14.35
2022-09-18T16:15:52.187Z,14.22
2022-09-18T16:21:01.687Z,14.34
2022-09-18T16:26:24.706Z,14.44
2022-09-18T16:31:38.714Z,14.38
2022-09-18T16:36:42.290Z,14.29
2022-09-18T16:41:44.500Z,14.27
2022-09-18T16:47:05.413Z,14.23
2022-09-18T16:52:10.695Z,14.03
2022-09-18T16:57:18.257Z,13.83
2022-09-18T17:02:23.298Z,13.60
2022-09-18T17:07:38.366Z,13.49
2022-09-18T17:12:45.252Z,13.42
2022-09-18T17:17:50.565Z,13.35
2022-09-18T17:22:52.759Z,13.27
2022-09-18T17:27:55.157Z,13.20
2022-09-18T17:32:56.924Z,13.13
2022-09-18T17:37:58.640Z,13.10
2022-09-18T17:43:03.986Z,13.08
2022-09-18T17:48:07.830Z,13.06
2022-09-18T17:53:09.699Z,13.01
2022-09-18T17:58:18.373Z,12.71
2022-09-18T18:03:22.644Z,12.54
2022-09-18T18:08:30.121Z,12.34
2022-09-18T18:13:40.272Z,12.12
2022-09-18T18:18:46.294Z,12.02
2022-09-18T18:24:05.774Z,11.92
2022-09-18T18:29:16.191Z,11.89
2022-09-18T18:34:21.102Z,11.87
2022-09-18T18:39:26.074Z,11.82
2022-09-18T18:44:27.982Z,11.84
2022-09-18T18:49:32.905Z,11.87
2022-09-18T18:54:39.574Z,11.88
2022-09-18T18:59:47.061Z,11.85
2022-09-18T19:04:48.944Z,11.83
2022-09-18T19:09:50.739Z,11.83
2022-09-18T19:14:55.164Z,11.85
2022-09-18T19:20:01.812Z,11.88
2022-09-18T19:25:06.653Z,11.95
2022-09-18T19:30:11.361Z,12.04
2022-09-18T19:35:17.034Z,12.15
2022-09-18T19:40:18.839Z,12.23
2022-09-18T19:45:29.686Z,12.26
2022-09-18T19:50:34.420Z,12.30
2022-09-18T19:55:36.258Z,12.33
2022-09-18T20:00:39.882Z,12.31
2022-09-18T20:05:44.353Z,12.29
2022-09-18T20:10:47.198Z,12.22
2022-09-18T20:16:10.608Z,12.19
2022-09-18T20:21:19.372Z,12.14
2022-09-18T20:26:46.302Z,12.11
2022-09-18T20:31:51.047Z,12.07
2022-09-18T20:36:55.205Z,12.02
2022-09-18T20:42:01.940Z,12.01
2022-09-18T20:47:05.270Z,12.02
2022-09-18T20:52:10.288Z,11.97
2022-09-18T20:57:14.531Z,11.95
2022-09-18T21:02:18.227Z,11.98
2022-09-18T21:07:21.463Z,12.03
2022-09-18T21:12:24.896Z,12.07
2022-09-18T21:17:30.510Z,12.16
2022-09-18T21:22:32.231Z,12.19
2022-09-18T21:27:37.544Z,12.14
2022-09-18T21:32:39.695Z,12.11
2022-09-18T21:37:49.799Z,12.07
2022-09-18T21:42:59.219Z,11.98
2022-09-18T21:48:03.184Z,11.84
2022-09-18T21:53:08.624Z,11.74
2022-09-18T21:58:12.009Z,11.68
2022-09-18T22:03:18.289Z,11.64
2022-09-18T22:08:20.069Z,11.59
2022-09-18T22:13:34.929Z,11.55
2022-09-18T22:18:38.170Z,11.57
2022-09-18T22:23:42.870Z,11.57
2022-09-18T22:28:49.592Z,11.59
2022-09-18T22:33:58.397Z,11.62
2022-09-18T22:39:05.027Z,11.63
2022-09-18T22:44:07.284Z,11.62
2022-09-18T22:49:12.056Z,11.59
2022-09-18T22:54:17.736Z,11.56
2022-09-18T22:59:21.796Z,11.54
2022-09-18T23:04:30.181Z,11.59
2022-09-18T23:09:31.970Z,11.57
2022-09-18T23:14:36.194Z,11.59
2022-09-18T23:19:37.930Z,11.63
2022-09-18T23:24:39.912Z,11.62
2022-09-18T23:29:44.041Z,11.61
2022-09-18T23:34:50.403Z,11.58
2022-09-18T23:39:53.227Z,11.52
2022-09-18T23:44:54.985Z,11.44
2022-09-18T23:49:58.981Z,11.43
2022-09-18T23:55:00.677Z,11.38
